sensor_id;sensor_type;location;lat;lon;timestamp;P1;durP1;ratioP1;P2;durP2;ratioP2
70985;SDS011;58645;43.068;25.610;2024-03-22T00:01:44;5.18;;;2.50;;
70985;SDS011;58645;43.068;25.610;2024-03-22T00:04:10;5.05;;;2.85;;
70985;SDS011;58645;43.068;25.610;2024-03-22T00:06:37;6.13;;;2.70;;
70985;SDS011;58645;43.068;25.610;2024-03-22T00:09:03;8.55;;;3.35;;
70985;SDS011;58645;43.068;25.610;2024-03-22T00:11:29;6.63;;;3.60;;
70985;SDS011;58645;43.068;25.610;2024-03-22T00:13:54;7.72;;;4.47;;
70985;SDS011;58645;43.068;25.610;2024-03-22T00:16:20;8.85;;;3.95;;
70985;SDS011;58645;43.068;25.610;2024-03-22T00:18:46;7.60;;;3.97;;
70985;SDS011;58645;43.068;25.610;2024-03-22T00:21:11;7.32;;;3.05;;
70985;SDS011;58645;43.068;25.610;2024-03-22T00:23:37;6.20;;;3.13;;
70985;SDS011;58645;43.068;25.610;2024-03-22T00:26:03;6.38;;;3.83;;
70985;SDS011;58645;43.068;25.610;2024-03-22T00:28:29;6.53;;;3.00;;
70985;SDS011;58645;43.068;25.610;2024-03-22T00:30:54;4.97;;;2.90;;
70985;SDS011;58645;43.068;25.610;2024-03-22T00:33:20;6.90;;;3.30;;
70985;SDS011;58645;43.068;25.610;2024-03-22T00:35:46;6.07;;;3.65;;
70985;SDS011;58645;43.068;25.610;2024-03-22T00:38:12;5.60;;;3.40;;
70985;SDS011;58645;43.068;25.610;2024-03-22T00:40:38;8.00;;;3.60;;
70985;SDS011;58645;43.068;25.610;2024-03-22T00:43:06;6.55;;;2.90;;
70985;SDS011;58645;43.068;25.610;2024-03-22T00:45:31;4.53;;;2.63;;
70985;SDS011;58645;43.068;25.610;2024-03-22T00:47:57;4.97;;;2.22;;
70985;SDS011;58645;43.068;25.610;2024-03-22T00:50:23;4.22;;;2.15;;
70985;SDS011;58645;43.068;25.610;2024-03-22T00:52:50;3.22;;;2.15;;
70985;SDS011;58645;43.068;25.610;2024-03-22T00:55:16;5.57;;;1.98;;
70985;SDS011;58645;43.068;25.610;2024-03-22T00:57:42;4.55;;;2.28;;
70985;SDS011;58645;43.068;25.610;2024-03-22T01:00:08;4.38;;;2.35;;
70985;SDS011;58645;43.068;25.610;2024-03-22T01:05:00;4.15;;;2.47;;
70985;SDS011;58645;43.068;25.610;2024-03-22T01:07:26;2.45;;;1.55;;
70985;SDS011;58645;43.068;25.610;2024-03-22T01:09:51;3.00;;;1.30;;
70985;SDS011;58645;43.068;25.610;2024-03-22T01:12:17;3.22;;;1.63;;
70985;SDS011;58645;43.068;25.610;2024-03-22T01:14:43;3.33;;;1.40;;
70985;SDS011;58645;43.068;25.610;2024-03-22T01:17:09;3.60;;;1.70;;
70985;SDS011;58645;43.068;25.610;2024-03-22T01:19:34;3.85;;;2.42;;
70985;SDS011;58645;43.068;25.610;2024-03-22T01:22:00;3.42;;;2.17;;
70985;SDS011;58645;43.068;25.610;2024-03-22T01:24:26;3.40;;;1.52;;
70985;SDS011;58645;43.068;25.610;2024-03-22T01:26:52;3.15;;;1.67;;
70985;SDS011;58645;43.068;25.610;2024-03-22T01:29:18;3.70;;;1.73;;
70985;SDS011;58645;43.068;25.610;2024-03-22T01:31:43;3.33;;;1.60;;
70985;SDS011;58645;43.068;25.610;2024-03-22T01:34:09;4.28;;;2.10;;
70985;SDS011;58645;43.068;25.610;2024-03-22T01:36:35;3.58;;;1.58;;
70985;SDS011;58645;43.068;25.610;2024-03-22T01:39:00;3.65;;;2.03;;
70985;SDS011;58645;43.068;25.610;2024-03-22T01:41:26;3.95;;;1.90;;
70985;SDS011;58645;43.068;25.610;2024-03-22T01:43:52;4.10;;;2.17;;
70985;SDS011;58645;43.068;25.610;2024-03-22T01:46:17;4.32;;;2.10;;
70985;SDS011;58645;43.068;25.610;2024-03-22T01:48:43;3.95;;;2.17;;
70985;SDS011;58645;43.068;25.610;2024-03-22T01:51:09;4.47;;;2.20;;
70985;SDS011;58645;43.068;25.610;2024-03-22T01:53:35;4.40;;;2.33;;
70985;SDS011;58645;43.068;25.610;2024-03-22T01:56:03;5.45;;;3.08;;
70985;SDS011;58645;43.068;25.610;2024-03-22T01:58:29;5.47;;;3.17;;
70985;SDS011;58645;43.068;25.610;2024-03-22T02:00:55;7.00;;;3.05;;
70985;SDS011;58645;43.068;25.610;2024-03-22T02:03:21;6.00;;;2.97;;
70985;SDS011;58645;43.068;25.610;2024-03-22T02:05:47;4.25;;;2.80;;
70985;SDS011;58645;43.068;25.610;2024-03-22T02:08:12;6.43;;;3.30;;
70985;SDS011;58645;43.068;25.610;2024-03-22T02:10:38;7.70;;;3.42;;
70985;SDS011;58645;43.068;25.610;2024-03-22T02:13:04;7.15;;;3.22;;
70985;SDS011;58645;43.068;25.610;2024-03-22T02:15:30;8.00;;;3.63;;
70985;SDS011;58645;43.068;25.610;2024-03-22T02:17:56;9.27;;;3.65;;
70985;SDS011;58645;43.068;25.610;2024-03-22T02:20:22;12.18;;;4.18;;
70985;SDS011;58645;43.068;25.610;2024-03-22T02:22:47;6.93;;;3.67;;
70985;SDS011;58645;43.068;25.610;2024-03-22T02:25:13;7.50;;;3.72;;
70985;SDS011;58645;43.068;25.610;2024-03-22T02:27:39;7.30;;;3.45;;
70985;SDS011;58645;43.068;25.610;2024-03-22T02:30:06;7.60;;;3.45;;
70985;SDS011;58645;43.068;25.610;2024-03-22T02:32:32;5.97;;;3.40;;
70985;SDS011;58645;43.068;25.610;2024-03-22T02:34:58;8.60;;;3.85;;
70985;SDS011;58645;43.068;25.610;2024-03-22T02:37:24;7.82;;;3.67;;
70985;SDS011;58645;43.068;25.610;2024-03-22T02:39:50;7.85;;;3.65;;
70985;SDS011;58645;43.068;25.610;2024-03-22T02:42:15;8.73;;;3.60;;
70985;SDS011;58645;43.068;25.610;2024-03-22T02:44:41;8.20;;;3.60;;
70985;SDS011;58645;43.068;25.610;2024-03-22T02:47:09;7.97;;;3.70;;
70985;SDS011;58645;43.068;25.610;2024-03-22T02:49:35;7.50;;;3.67;;
70985;SDS011;58645;43.068;25.610;2024-03-22T02:52:02;7.82;;;3.70;;
70985;SDS011;58645;43.068;25.610;2024-03-22T02:54:28;7.10;;;3.63;;
70985;SDS011;58645;43.068;25.610;2024-03-22T02:56:54;6.65;;;3.58;;
70985;SDS011;58645;43.068;25.610;2024-03-22T02:59:19;7.22;;;3.40;;
70985;SDS011;58645;43.068;25.610;2024-03-22T03:01:45;7.93;;;3.95;;
70985;SDS011;58645;43.068;25.610;2024-03-22T03:04:11;8.15;;;3.75;;
70985;SDS011;58645;43.068;25.610;2024-03-22T03:06:37;7.68;;;3.65;;
70985;SDS011;58645;43.068;25.610;2024-03-22T03:09:02;8.75;;;4.40;;
70985;SDS011;58645;43.068;25.610;2024-03-22T03:11:32;8.02;;;3.88;;
70985;SDS011;58645;43.068;25.610;2024-03-22T03:13:58;8.57;;;4.05;;
70985;SDS011;58645;43.068;25.610;2024-03-22T03:16:23;8.35;;;4.00;;
70985;SDS011;58645;43.068;25.610;2024-03-22T03:18:49;10.45;;;4.00;;
70985;SDS011;58645;43.068;25.610;2024-03-22T03:21:15;9.68;;;4.63;;
70985;SDS011;58645;43.068;25.610;2024-03-22T03:23:40;10.25;;;4.53;;
70985;SDS011;58645;43.068;25.610;2024-03-22T03:26:06;8.20;;;4.03;;
70985;SDS011;58645;43.068;25.610;2024-03-22T03:28:32;9.00;;;3.90;;
70985;SDS011;58645;43.068;25.610;2024-03-22T03:30:58;9.38;;;4.10;;
70985;SDS011;58645;43.068;25.610;2024-03-22T03:33:23;7.78;;;3.53;;
70985;SDS011;58645;43.068;25.610;2024-03-22T03:35:50;9.80;;;3.65;;
70985;SDS011;58645;43.068;25.610;2024-03-22T03:38:15;5.85;;;3.25;;
70985;SDS011;58645;43.068;25.610;2024-03-22T03:40:41;5.88;;;3.25;;
70985;SDS011;58645;43.068;25.610;2024-03-22T03:43:07;7.60;;;3.13;;
70985;SDS011;58645;43.068;25.610;2024-03-22T03:45:35;8.40;;;3.75;;
70985;SDS011;58645;43.068;25.610;2024-03-22T03:48:01;6.88;;;3.30;;
70985;SDS011;58645;43.068;25.610;2024-03-22T03:50:27;7.47;;;3.40;;
70985;SDS011;58645;43.068;25.610;2024-03-22T03:52:53;8.80;;;3.47;;
70985;SDS011;58645;43.068;25.610;2024-03-22T03:55:19;6.22;;;3.33;;
70985;SDS011;58645;43.068;25.610;2024-03-22T03:57:44;7.93;;;3.72;;
70985;SDS011;58645;43.068;25.610;2024-03-22T04:00:10;6.97;;;4.03;;
70985;SDS011;58645;43.068;25.610;2024-03-22T04:02:37;6.55;;;3.28;;
70985;SDS011;58645;43.068;25.610;2024-03-22T04:05:02;7.00;;;3.60;;
70985;SDS011;58645;43.068;25.610;2024-03-22T04:07:28;7.72;;;3.60;;
70985;SDS011;58645;43.068;25.610;2024-03-22T04:09:54;6.10;;;3.45;;
70985;SDS011;58645;43.068;25.610;2024-03-22T04:12:20;7.97;;;3.53;;
70985;SDS011;58645;43.068;25.610;2024-03-22T04:14:45;7.25;;;3.30;;
70985;SDS011;58645;43.068;25.610;2024-03-22T04:17:11;7.38;;;3.88;;
70985;SDS011;58645;43.068;25.610;2024-03-22T04:19:37;12.38;;;4.70;;
70985;SDS011;58645;43.068;25.610;2024-03-22T04:22:03;9.35;;;4.75;;
70985;SDS011;58645;43.068;25.610;2024-03-22T04:24:29;9.65;;;4.03;;
70985;SDS011;58645;43.068;25.610;2024-03-22T04:26:54;9.07;;;4.00;;
70985;SDS011;58645;43.068;25.610;2024-03-22T04:29:20;9.48;;;4.90;;
70985;SDS011;58645;43.068;25.610;2024-03-22T04:31:46;11.88;;;5.07;;
70985;SDS011;58645;43.068;25.610;2024-03-22T04:34:11;7.70;;;3.83;;
70985;SDS011;58645;43.068;25.610;2024-03-22T04:36:37;10.07;;;4.93;;
70985;SDS011;58645;43.068;25.610;2024-03-22T04:39:03;9.98;;;5.78;;
70985;SDS011;58645;43.068;25.610;2024-03-22T04:41:29;10.30;;;5.45;;
70985;SDS011;58645;43.068;25.610;2024-03-22T04:43:54;15.02;;;5.97;;
70985;SDS011;58645;43.068;25.610;2024-03-22T04:46:20;12.98;;;6.43;;
70985;SDS011;58645;43.068;25.610;2024-03-22T04:48:46;13.90;;;7.30;;
70985;SDS011;58645;43.068;25.610;2024-03-22T04:51:11;13.23;;;6.07;;
70985;SDS011;58645;43.068;25.610;2024-03-22T04:53:37;16.55;;;7.15;;
70985;SDS011;58645;43.068;25.610;2024-03-22T04:56:03;15.82;;;7.40;;
70985;SDS011;58645;43.068;25.610;2024-03-22T04:58:29;14.23;;;7.00;;
70985;SDS011;58645;43.068;25.610;2024-03-22T05:00:56;13.25;;;6.93;;
70985;SDS011;58645;43.068;25.610;2024-03-22T05:03:23;17.75;;;8.45;;
70985;SDS011;58645;43.068;25.610;2024-03-22T05:05:49;20.42;;;9.48;;
70985;SDS011;58645;43.068;25.610;2024-03-22T05:08:15;13.63;;;5.85;;
70985;SDS011;58645;43.068;25.610;2024-03-22T05:10:42;12.85;;;6.30;;
70985;SDS011;58645;43.068;25.610;2024-03-22T05:13:08;14.18;;;6.57;;
70985;SDS011;58645;43.068;25.610;2024-03-22T05:15:33;14.93;;;6.43;;
70985;SDS011;58645;43.068;25.610;2024-03-22T05:17:59;11.73;;;6.05;;
70985;SDS011;58645;43.068;25.610;2024-03-22T05:20:25;9.32;;;5.10;;
70985;SDS011;58645;43.068;25.610;2024-03-22T05:22:51;8.88;;;5.13;;
70985;SDS011;58645;43.068;25.610;2024-03-22T05:25:17;9.65;;;5.05;;
70985;SDS011;58645;43.068;25.610;2024-03-22T05:27:43;12.70;;;4.88;;
70985;SDS011;58645;43.068;25.610;2024-03-22T05:30:10;8.73;;;5.07;;
70985;SDS011;58645;43.068;25.610;2024-03-22T05:32:36;10.70;;;5.78;;
70985;SDS011;58645;43.068;25.610;2024-03-22T05:35:03;10.10;;;5.68;;
70985;SDS011;58645;43.068;25.610;2024-03-22T05:37:29;9.00;;;5.00;;
70985;SDS011;58645;43.068;25.610;2024-03-22T05:39:55;10.95;;;5.15;;
70985;SDS011;58645;43.068;25.610;2024-03-22T05:42:21;8.18;;;4.90;;
70985;SDS011;58645;43.068;25.610;2024-03-22T05:44:47;13.77;;;6.25;;
70985;SDS011;58645;43.068;25.610;2024-03-22T05:47:13;9.80;;;7.10;;
70985;SDS011;58645;43.068;25.610;2024-03-22T05:49:39;9.70;;;5.90;;
70985;SDS011;58645;43.068;25.610;2024-03-22T05:52:04;9.70;;;5.50;;
70985;SDS011;58645;43.068;25.610;2024-03-22T05:54:30;7.82;;;5.25;;
70985;SDS011;58645;43.068;25.610;2024-03-22T05:56:56;7.97;;;5.28;;
70985;SDS011;58645;43.068;25.610;2024-03-22T05:59:22;7.57;;;5.05;;
70985;SDS011;58645;43.068;25.610;2024-03-22T06:01:48;7.55;;;5.53;;
70985;SDS011;58645;43.068;25.610;2024-03-22T06:04:14;9.05;;;5.53;;
70985;SDS011;58645;43.068;25.610;2024-03-22T06:06:40;11.13;;;6.13;;
70985;SDS011;58645;43.068;25.610;2024-03-22T06:09:05;8.02;;;5.55;;
70985;SDS011;58645;43.068;25.610;2024-03-22T06:11:36;9.43;;;4.85;;
70985;SDS011;58645;43.068;25.610;2024-03-22T06:14:02;14.82;;;5.13;;
70985;SDS011;58645;43.068;25.610;2024-03-22T06:16:28;6.57;;;4.25;;
70985;SDS011;58645;43.068;25.610;2024-03-22T06:18:54;10.18;;;5.90;;
70985;SDS011;58645;43.068;25.610;2024-03-22T06:21:19;7.53;;;5.88;;
70985;SDS011;58645;43.068;25.610;2024-03-22T06:23:50;10.77;;;6.68;;
70985;SDS011;58645;43.068;25.610;2024-03-22T06:28:42;10.35;;;7.47;;
70985;SDS011;58645;43.068;25.610;2024-03-22T06:31:08;8.88;;;6.88;;
70985;SDS011;58645;43.068;25.610;2024-03-22T06:33:34;10.10;;;6.85;;
70985;SDS011;58645;43.068;25.610;2024-03-22T06:36:00;8.95;;;7.15;;
70985;SDS011;58645;43.068;25.610;2024-03-22T06:38:26;12.02;;;9.40;;
70985;SDS011;58645;43.068;25.610;2024-03-22T06:40:52;37.15;;;30.20;;
70985;SDS011;58645;43.068;25.610;2024-03-22T06:43:17;20.23;;;13.75;;
70985;SDS011;58645;43.068;25.610;2024-03-22T06:45:46;9.63;;;7.57;;
70985;SDS011;58645;43.068;25.610;2024-03-22T06:48:12;5.05;;;4.03;;
70985;SDS011;58645;43.068;25.610;2024-03-22T06:50:40;4.80;;;3.42;;
70985;SDS011;58645;43.068;25.610;2024-03-22T06:53:07;10.90;;;9.80;;
70985;SDS011;58645;43.068;25.610;2024-03-22T06:55:32;7.47;;;6.10;;
70985;SDS011;58645;43.068;25.610;2024-03-22T06:57:58;6.32;;;5.63;;
70985;SDS011;58645;43.068;25.610;2024-03-22T07:00:24;6.13;;;4.72;;
70985;SDS011;58645;43.068;25.610;2024-03-22T07:02:49;6.65;;;5.25;;
70985;SDS011;58645;43.068;25.610;2024-03-22T07:05:15;8.95;;;7.38;;
70985;SDS011;58645;43.068;25.610;2024-03-22T07:07:41;7.50;;;5.07;;
70985;SDS011;58645;43.068;25.610;2024-03-22T07:10:07;5.05;;;4.28;;
70985;SDS011;58645;43.068;25.610;2024-03-22T07:12:33;5.63;;;4.85;;
70985;SDS011;58645;43.068;25.610;2024-03-22T07:14:59;6.40;;;3.55;;
70985;SDS011;58645;43.068;25.610;2024-03-22T07:17:26;4.57;;;3.65;;
70985;SDS011;58645;43.068;25.610;2024-03-22T07:19:52;5.45;;;4.43;;
70985;SDS011;58645;43.068;25.610;2024-03-22T07:22:19;8.20;;;6.80;;
70985;SDS011;58645;43.068;25.610;2024-03-22T07:24:45;6.22;;;5.63;;
70985;SDS011;58645;43.068;25.610;2024-03-22T07:27:12;6.45;;;4.75;;
70985;SDS011;58645;43.068;25.610;2024-03-22T07:29:40;6.00;;;4.85;;
70985;SDS011;58645;43.068;25.610;2024-03-22T07:32:06;6.45;;;4.15;;
70985;SDS011;58645;43.068;25.610;2024-03-22T07:34:32;6.40;;;5.05;;
70985;SDS011;58645;43.068;25.610;2024-03-22T07:36:58;5.07;;;3.70;;
70985;SDS011;58645;43.068;25.610;2024-03-22T07:41:50;6.00;;;4.72;;
70985;SDS011;58645;43.068;25.610;2024-03-22T07:44:16;4.60;;;3.70;;
70985;SDS011;58645;43.068;25.610;2024-03-22T07:46:52;4.55;;;3.55;;
70985;SDS011;58645;43.068;25.610;2024-03-22T07:49:17;5.35;;;4.07;;
70985;SDS011;58645;43.068;25.610;2024-03-22T07:51:43;7.85;;;5.80;;
70985;SDS011;58645;43.068;25.610;2024-03-22T07:56:34;11.80;;;7.75;;
70985;SDS011;58645;43.068;25.610;2024-03-22T08:01:26;9.02;;;7.70;;
70985;SDS011;58645;43.068;25.610;2024-03-22T08:03:52;10.82;;;7.60;;
70985;SDS011;58645;43.068;25.610;2024-03-22T08:06:18;5.25;;;3.83;;
70985;SDS011;58645;43.068;25.610;2024-03-22T08:11:09;4.38;;;3.20;;
70985;SDS011;58645;43.068;25.610;2024-03-22T08:13:35;5.60;;;4.05;;
70985;SDS011;58645;43.068;25.610;2024-03-22T08:16:02;4.03;;;3.10;;
70985;SDS011;58645;43.068;25.610;2024-03-22T08:18:28;4.53;;;3.10;;
70985;SDS011;58645;43.068;25.610;2024-03-22T08:20:54;4.68;;;3.90;;
70985;SDS011;58645;43.068;25.610;2024-03-22T08:25:47;4.13;;;3.05;;
70985;SDS011;58645;43.068;25.610;2024-03-22T08:28:14;5.38;;;3.30;;
70985;SDS011;58645;43.068;25.610;2024-03-22T08:30:40;3.80;;;2.90;;
70985;SDS011;58645;43.068;25.610;2024-03-22T08:33:07;3.50;;;2.85;;
70985;SDS011;58645;43.068;25.610;2024-03-22T08:35:34;4.50;;;4.05;;
70985;SDS011;58645;43.068;25.610;2024-03-22T08:40:25;6.55;;;3.78;;
70985;SDS011;58645;43.068;25.610;2024-03-22T08:42:52;3.95;;;3.45;;
70985;SDS011;58645;43.068;25.610;2024-03-22T08:47:43;4.10;;;2.72;;
70985;SDS011;58645;43.068;25.610;2024-03-22T08:50:11;3.80;;;3.30;;
70985;SDS011;58645;43.068;25.610;2024-03-22T08:55:03;4.72;;;3.45;;
70985;SDS011;58645;43.068;25.610;2024-03-22T08:57:31;4.57;;;3.78;;
70985;SDS011;58645;43.068;25.610;2024-03-22T08:59:57;3.80;;;3.15;;
70985;SDS011;58645;43.068;25.610;2024-03-22T09:02:23;4.68;;;3.05;;
70985;SDS011;58645;43.068;25.610;2024-03-22T09:04:49;3.38;;;2.58;;
70985;SDS011;58645;43.068;25.610;2024-03-22T09:07:14;5.25;;;2.80;;
70985;SDS011;58645;43.068;25.610;2024-03-22T09:09:40;4.22;;;2.40;;
70985;SDS011;58645;43.068;25.610;2024-03-22T09:12:06;3.85;;;3.38;;
70985;SDS011;58645;43.068;25.610;2024-03-22T09:14:32;3.53;;;2.72;;
70985;SDS011;58645;43.068;25.610;2024-03-22T09:16:58;5.07;;;2.60;;
70985;SDS011;58645;43.068;25.610;2024-03-22T09:19:24;2.80;;;2.35;;
70985;SDS011;58645;43.068;25.610;2024-03-22T09:21:50;2.95;;;2.65;;
70985;SDS011;58645;43.068;25.610;2024-03-22T09:24:15;2.85;;;1.80;;
70985;SDS011;58645;43.068;25.610;2024-03-22T09:26:41;2.65;;;1.90;;
70985;SDS011;58645;43.068;25.610;2024-03-22T09:31:33;3.65;;;2.88;;
70985;SDS011;58645;43.068;25.610;2024-03-22T09:33:59;3.08;;;2.40;;
70985;SDS011;58645;43.068;25.610;2024-03-22T09:36:25;3.38;;;2.00;;
70985;SDS011;58645;43.068;25.610;2024-03-22T09:38:50;2.22;;;1.70;;
70985;SDS011;58645;43.068;25.610;2024-03-22T09:41:18;2.78;;;2.30;;
70985;SDS011;58645;43.068;25.610;2024-03-22T09:43:49;3.05;;;2.30;;
70985;SDS011;58645;43.068;25.610;2024-03-22T09:46:16;3.58;;;2.70;;
70985;SDS011;58645;43.068;25.610;2024-03-22T09:48:49;3.10;;;2.67;;
70985;SDS011;58645;43.068;25.610;2024-03-22T09:51:16;5.00;;;2.50;;
70985;SDS011;58645;43.068;25.610;2024-03-22T09:53:45;3.40;;;2.88;;
70985;SDS011;58645;43.068;25.610;2024-03-22T09:56:14;3.08;;;2.10;;
70985;SDS011;58645;43.068;25.610;2024-03-22T09:58:41;4.70;;;3.13;;
70985;SDS011;58645;43.068;25.610;2024-03-22T10:01:07;3.45;;;2.75;;
70985;SDS011;58645;43.068;25.610;2024-03-22T10:05:58;3.38;;;2.72;;
70985;SDS011;58645;43.068;25.610;2024-03-22T10:08:24;2.80;;;2.10;;
70985;SDS011;58645;43.068;25.610;2024-03-22T10:13:16;3.88;;;1.90;;
70985;SDS011;58645;43.068;25.610;2024-03-22T10:15:41;3.63;;;2.00;;
70985;SDS011;58645;43.068;25.610;2024-03-22T10:18:07;3.30;;;2.83;;
70985;SDS011;58645;43.068;25.610;2024-03-22T10:20:35;3.13;;;2.60;;
70985;SDS011;58645;43.068;25.610;2024-03-22T10:25:26;3.17;;;2.60;;
70985;SDS011;58645;43.068;25.610;2024-03-22T10:27:54;3.40;;;2.90;;
70985;SDS011;58645;43.068;25.610;2024-03-22T10:30:20;3.78;;;2.90;;
70985;SDS011;58645;43.068;25.610;2024-03-22T10:32:48;3.00;;;2.00;;
70985;SDS011;58645;43.068;25.610;2024-03-22T10:35:14;3.22;;;2.38;;
70985;SDS011;58645;43.068;25.610;2024-03-22T10:37:40;4.85;;;3.40;;
70985;SDS011;58645;43.068;25.610;2024-03-22T10:40:07;3.97;;;2.72;;
70985;SDS011;58645;43.068;25.610;2024-03-22T10:42:40;3.30;;;2.92;;
70985;SDS011;58645;43.068;25.610;2024-03-22T10:45:07;3.70;;;2.70;;
70985;SDS011;58645;43.068;25.610;2024-03-22T10:47:34;2.95;;;2.20;;
70985;SDS011;58645;43.068;25.610;2024-03-22T10:50:05;3.22;;;2.00;;
70985;SDS011;58645;43.068;25.610;2024-03-22T10:52:37;3.90;;;2.28;;
70985;SDS011;58645;43.068;25.610;2024-03-22T10:55:27;3.33;;;2.88;;
70985;SDS011;58645;43.068;25.610;2024-03-22T10:57:58;4.03;;;2.90;;
70985;SDS011;58645;43.068;25.610;2024-03-22T11:00:31;3.90;;;2.35;;
70985;SDS011;58645;43.068;25.610;2024-03-22T11:03:01;4.47;;;2.67;;
70985;SDS011;58645;43.068;25.610;2024-03-22T11:05:27;3.38;;;2.10;;
70985;SDS011;58645;43.068;25.610;2024-03-22T11:08:03;3.58;;;2.80;;
70985;SDS011;58645;43.068;25.610;2024-03-22T11:10:30;2.58;;;2.10;;
70985;SDS011;58645;43.068;25.610;2024-03-22T11:13:05;2.78;;;2.58;;
70985;SDS011;58645;43.068;25.610;2024-03-22T11:15:32;3.22;;;2.53;;
70985;SDS011;58645;43.068;25.610;2024-03-22T11:17:59;4.07;;;3.40;;
70985;SDS011;58645;43.068;25.610;2024-03-22T11:20:25;3.53;;;3.08;;
70985;SDS011;58645;43.068;25.610;2024-03-22T11:22:52;2.95;;;2.40;;
70985;SDS011;58645;43.068;25.610;2024-03-22T11:25:18;4.68;;;3.40;;
70985;SDS011;58645;43.068;25.610;2024-03-22T11:27:44;4.18;;;3.38;;
70985;SDS011;58645;43.068;25.610;2024-03-22T11:30:14;3.38;;;2.55;;
70985;SDS011;58645;43.068;25.610;2024-03-22T11:32:41;3.97;;;3.03;;
70985;SDS011;58645;43.068;25.610;2024-03-22T11:35:10;3.20;;;2.90;;
70985;SDS011;58645;43.068;25.610;2024-03-22T11:37:40;3.25;;;2.75;;
70985;SDS011;58645;43.068;25.610;2024-03-22T11:40:10;4.32;;;2.17;;
70985;SDS011;58645;43.068;25.610;2024-03-22T11:42:41;3.72;;;3.08;;
70985;SDS011;58645;43.068;25.610;2024-03-22T11:45:10;3.25;;;2.05;;
70985;SDS011;58645;43.068;25.610;2024-03-22T11:47:37;4.43;;;3.38;;
70985;SDS011;58645;43.068;25.610;2024-03-22T11:50:03;3.72;;;2.22;;
70985;SDS011;58645;43.068;25.610;2024-03-22T11:52:30;3.28;;;2.40;;
70985;SDS011;58645;43.068;25.610;2024-03-22T11:54:56;3.22;;;2.00;;
70985;SDS011;58645;43.068;25.610;2024-03-22T11:57:23;3.53;;;2.38;;
70985;SDS011;58645;43.068;25.610;2024-03-22T11:59:49;2.80;;;2.05;;
70985;SDS011;58645;43.068;25.610;2024-03-22T12:02:17;3.42;;;2.50;;
70985;SDS011;58645;43.068;25.610;2024-03-22T12:04:44;4.35;;;2.40;;
70985;SDS011;58645;43.068;25.610;2024-03-22T12:07:15;4.53;;;3.05;;
70985;SDS011;58645;43.068;25.610;2024-03-22T12:09:42;3.08;;;2.22;;
70985;SDS011;58645;43.068;25.610;2024-03-22T12:12:11;4.03;;;3.00;;
70985;SDS011;58645;43.068;25.610;2024-03-22T12:14:38;3.92;;;2.30;;
70985;SDS011;58645;43.068;25.610;2024-03-22T12:17:04;3.25;;;2.65;;
70985;SDS011;58645;43.068;25.610;2024-03-22T12:19:31;3.08;;;2.58;;
70985;SDS011;58645;43.068;25.610;2024-03-22T12:21:57;2.95;;;2.08;;
70985;SDS011;58645;43.068;25.610;2024-03-22T12:24:24;3.50;;;2.42;;
70985;SDS011;58645;43.068;25.610;2024-03-22T12:26:50;4.30;;;3.50;;
70985;SDS011;58645;43.068;25.610;2024-03-22T12:29:16;3.53;;;2.80;;
70985;SDS011;58645;43.068;25.610;2024-03-22T12:31:42;4.07;;;3.00;;
70985;SDS011;58645;43.068;25.610;2024-03-22T12:34:08;2.70;;;1.95;;
70985;SDS011;58645;43.068;25.610;2024-03-22T12:36:34;3.42;;;2.75;;
70985;SDS011;58645;43.068;25.610;2024-03-22T12:39:00;3.42;;;2.92;;
70985;SDS011;58645;43.068;25.610;2024-03-22T12:41:25;3.58;;;3.05;;
70985;SDS011;58645;43.068;25.610;2024-03-22T12:43:55;3.22;;;2.70;;
70985;SDS011;58645;43.068;25.610;2024-03-22T12:46:21;3.45;;;2.75;;
70985;SDS011;58645;43.068;25.610;2024-03-22T12:48:47;4.90;;;2.35;;
70985;SDS011;58645;43.068;25.610;2024-03-22T12:53:38;4.47;;;2.30;;
70985;SDS011;58645;43.068;25.610;2024-03-22T12:58:30;3.55;;;2.85;;
70985;SDS011;58645;43.068;25.610;2024-03-22T13:00:56;3.92;;;3.00;;
70985;SDS011;58645;43.068;25.610;2024-03-22T13:03:23;3.75;;;2.45;;
70985;SDS011;58645;43.068;25.610;2024-03-22T13:05:48;3.67;;;2.72;;
70985;SDS011;58645;43.068;25.610;2024-03-22T13:08:14;3.40;;;2.65;;
70985;SDS011;58645;43.068;25.610;2024-03-22T13:10:40;3.40;;;2.33;;
70985;SDS011;58645;43.068;25.610;2024-03-22T13:13:08;4.15;;;2.42;;
70985;SDS011;58645;43.068;25.610;2024-03-22T13:18:02;3.97;;;2.47;;
70985;SDS011;58645;43.068;25.610;2024-03-22T13:20:28;3.97;;;2.90;;
70985;SDS011;58645;43.068;25.610;2024-03-22T13:22:54;4.13;;;3.33;;
70985;SDS011;58645;43.068;25.610;2024-03-22T13:25:20;4.00;;;2.80;;
70985;SDS011;58645;43.068;25.610;2024-03-22T13:27:46;4.05;;;2.47;;
70985;SDS011;58645;43.068;25.610;2024-03-22T13:30:12;3.25;;;2.17;;
70985;SDS011;58645;43.068;25.610;2024-03-22T13:32:39;4.43;;;3.05;;
70985;SDS011;58645;43.068;25.610;2024-03-22T13:35:05;4.30;;;2.65;;
70985;SDS011;58645;43.068;25.610;2024-03-22T13:37:31;4.93;;;2.90;;
70985;SDS011;58645;43.068;25.610;2024-03-22T13:39:58;4.85;;;2.28;;
70985;SDS011;58645;43.068;25.610;2024-03-22T13:42:24;4.57;;;2.92;;
70985;SDS011;58645;43.068;25.610;2024-03-22T13:44:51;4.80;;;2.70;;
70985;SDS011;58645;43.068;25.610;2024-03-22T13:47:17;3.90;;;2.65;;
70985;SDS011;58645;43.068;25.610;2024-03-22T13:49:43;3.72;;;2.90;;
70985;SDS011;58645;43.068;25.610;2024-03-22T13:52:13;5.30;;;3.17;;
70985;SDS011;58645;43.068;25.610;2024-03-22T13:54:38;4.00;;;2.88;;
70985;SDS011;58645;43.068;25.610;2024-03-22T13:57:04;4.15;;;2.78;;
70985;SDS011;58645;43.068;25.610;2024-03-22T13:59:30;4.43;;;2.97;;
70985;SDS011;58645;43.068;25.610;2024-03-22T14:01:56;4.72;;;2.83;;
70985;SDS011;58645;43.068;25.610;2024-03-22T14:04:23;3.63;;;2.33;;
70985;SDS011;58645;43.068;25.610;2024-03-22T14:06:51;4.85;;;2.83;;
70985;SDS011;58645;43.068;25.610;2024-03-22T14:09:17;4.55;;;3.15;;
70985;SDS011;58645;43.068;25.610;2024-03-22T14:11:43;4.68;;;2.88;;
70985;SDS011;58645;43.068;25.610;2024-03-22T14:14:09;4.72;;;2.50;;
70985;SDS011;58645;43.068;25.610;2024-03-22T14:16:37;4.45;;;2.33;;
70985;SDS011;58645;43.068;25.610;2024-03-22T14:19:03;5.93;;;3.60;;
70985;SDS011;58645;43.068;25.610;2024-03-22T14:21:29;5.00;;;3.08;;
70985;SDS011;58645;43.068;25.610;2024-03-22T14:23:54;3.65;;;2.58;;
70985;SDS011;58645;43.068;25.610;2024-03-22T14:26:20;4.18;;;2.17;;
70985;SDS011;58645;43.068;25.610;2024-03-22T14:31:13;5.10;;;2.22;;
70985;SDS011;58645;43.068;25.610;2024-03-22T14:33:39;4.05;;;2.47;;
70985;SDS011;58645;43.068;25.610;2024-03-22T14:36:05;7.13;;;2.90;;
70985;SDS011;58645;43.068;25.610;2024-03-22T14:38:33;3.63;;;2.80;;
70985;SDS011;58645;43.068;25.610;2024-03-22T14:41:00;3.58;;;2.70;;
70985;SDS011;58645;43.068;25.610;2024-03-22T14:43:26;3.90;;;2.83;;
70985;SDS011;58645;43.068;25.610;2024-03-22T14:48:21;3.22;;;2.35;;
70985;SDS011;58645;43.068;25.610;2024-03-22T14:50:48;4.75;;;3.05;;
70985;SDS011;58645;43.068;25.610;2024-03-22T14:53:16;4.93;;;2.65;;
70985;SDS011;58645;43.068;25.610;2024-03-22T14:55:53;4.32;;;2.53;;
70985;SDS011;58645;43.068;25.610;2024-03-22T14:58:29;4.10;;;2.60;;
70985;SDS011;58645;43.068;25.610;2024-03-22T15:00:56;4.82;;;2.95;;
70985;SDS011;58645;43.068;25.610;2024-03-22T15:03:23;5.13;;;2.70;;
70985;SDS011;58645;43.068;25.610;2024-03-22T15:05:53;4.63;;;2.97;;
70985;SDS011;58645;43.068;25.610;2024-03-22T15:08:20;4.80;;;2.30;;
70985;SDS011;58645;43.068;25.610;2024-03-22T15:10:46;5.30;;;3.35;;
70985;SDS011;58645;43.068;25.610;2024-03-22T15:13:12;3.80;;;2.63;;
70985;SDS011;58645;43.068;25.610;2024-03-22T15:15:39;5.15;;;2.67;;